createdAt,value
2023-05-19T00:00:39.774Z,12.86
2023-05-19T00:02:05.989Z,12.93
2023-05-19T00:03:29.239Z,12.90
2023-05-19T00:04:52.008Z,12.89
2023-05-19T00:06:13.898Z,12.86
2023-05-19T00:07:39.440Z,12.81
2023-05-19T00:09:04.174Z,12.80
2023-05-19T00:10:30.584Z,12.80
2023-05-19T00:11:59.676Z,12.77
2023-05-19T00:13:23.304Z,12.67
2023-05-19T00:14:45.006Z,12.67
2023-05-19T00:16:08.139Z,12.67
2023-05-19T00:17:34.525Z,12.64
2023-05-19T00:18:59.746Z,12.59
2023-05-19T00:20:25.848Z,12.67
2023-05-19T00:21:47.185Z,12.56
2023-05-19T00:23:09.731Z,12.63
2023-05-19T00:24:31.929Z,12.62
2023-05-19T00:25:54.186Z,12.59
2023-05-19T00:27:16.623Z,12.59
2023-05-19T00:28:38.067Z,12.56
2023-05-19T00:30:00.618Z,12.53
2023-05-19T00:31:24.491Z,12.48
2023-05-19T00:32:48.001Z,12.47
2023-05-19T00:34:10.466Z,12.45
2023-05-19T00:35:31.630Z,12.43
2023-05-19T00:36:53.902Z,12.41
2023-05-19T00:38:16.917Z,12.40
2023-05-19T00:39:39.006Z,12.38
2023-05-19T00:41:00.495Z,12.34
2023-05-19T00:42:22.983Z,12.33
2023-05-19T00:43:44.384Z,12.30
2023-05-19T00:45:08.097Z,12.31
2023-05-19T00:46:31.085Z,12.28
2023-05-19T00:47:53.963Z,12.27
2023-05-19T00:49:16.089Z,12.29
2023-05-19T00:50:37.332Z,12.28
2023-05-19T00:52:00.990Z,12.26
2023-05-19T00:53:24.848Z,12.26
2023-05-19T00:54:47.744Z,12.27
2023-05-19T00:56:09.031Z,12.27
2023-05-19T00:57:31.359Z,12.27
2023-05-19T00:58:52.444Z,12.28
2023-05-19T01:00:16.426Z,12.28
2023-05-19T01:01:38.803Z,12.27
2023-05-19T01:03:01.933Z,12.26
2023-05-19T01:04:25.732Z,12.28
2023-05-19T01:05:47.722Z,12.29
2023-05-19T01:07:10.598Z,12.29
2023-05-19T01:08:32.833Z,12.31
2023-05-19T01:09:55.073Z,12.29
2023-05-19T01:11:17.298Z,12.32
2023-05-19T01:12:38.712Z,12.34
2023-05-19T01:14:01.013Z,12.34
2023-05-19T01:15:23.073Z,12.37
2023-05-19T01:16:50.044Z,12.36
2023-05-19T01:18:16.842Z,12.37
2023-05-19T01:19:56.445Z,12.39
2023-05-19T01:21:36.615Z,12.40
2023-05-19T01:23:27.752Z,12.40
2023-05-19T01:25:31.831Z,12.41
2023-05-19T01:27:14.776Z,12.41
2023-05-19T01:29:04.431Z,12.43
2023-05-19T01:30:32.420Z,12.44
2023-05-19T01:31:57.004Z,12.46
2023-05-19T01:33:19.389Z,12.50
2023-05-19T01:34:45.588Z,12.52
2023-05-19T01:36:10.353Z,12.53
2023-05-19T01:37:32.310Z,12.55
2023-05-19T01:38:57.714Z,12.56
2023-05-19T01:40:20.134Z,12.58
2023-05-19T01:41:43.645Z,12.59
2023-05-19T01:43:04.988Z,12.60
2023-05-19T01:44:27.365Z,12.62
2023-05-19T01:45:52.810Z,12.63
2023-05-19T01:47:16.426Z,12.63
2023-05-19T01:48:38.620Z,12.65
2023-05-19T01:50:00.853Z,12.62
2023-05-19T01:51:23.127Z,12.64
2023-05-19T01:52:44.146Z,12.63
2023-05-19T01:54:06.083Z,12.64
2023-05-19T01:55:27.378Z,12.62
2023-05-19T01:56:57.344Z,12.62
2023-05-19T01:58:25.162Z,12.61
2023-05-19T01:59:53.637Z,12.60
2023-05-19T02:01:30.400Z,12.58
2023-05-19T02:02:59.821Z,12.56
2023-05-19T02:04:31.573Z,12.54
2023-05-19T02:05:59.591Z,12.53
2023-05-19T02:07:32.785Z,12.52
2023-05-19T02:09:02.255Z,12.49
2023-05-19T02:10:32.014Z,12.47
2023-05-19T02:11:56.380Z,12.46
2023-05-19T02:13:25.879Z,12.44
2023-05-19T02:14:52.296Z,12.43
2023-05-19T02:16:19.028Z,12.45
2023-05-19T02:17:47.991Z,12.43
2023-05-19T02:19:22.275Z,12.44
2023-05-19T02:20:45.233Z,12.45
2023-05-19T02:22:08.582Z,12.47
2023-05-19T02:23:30.561Z,12.45
2023-05-19T02:24:52.148Z,12.45
2023-05-19T02:26:14.475Z,12.48
2023-05-19T02:27:40.257Z,12.48
2023-05-19T02:29:01.719Z,12.49
2023-05-19T02:30:24.384Z,12.48
2023-05-19T02:31:46.632Z,12.42
2023-05-19T02:33:11.539Z,12.51
2023-05-19T02:34:34.111Z,12.47
2023-05-19T02:35:55.293Z,12.52
2023-05-19T02:37:18.884Z,12.52
2023-05-19T02:38:41.488Z,12.51
2023-05-19T02:40:02.664Z,12.49
2023-05-19T02:41:25.077Z,12.52
2023-05-19T02:42:47.336Z,12.51
2023-05-19T02:44:09.007Z,12.52
2023-05-19T02:45:32.172Z,12.52
2023-05-19T02:46:53.400Z,12.50
2023-05-19T02:48:17.910Z,12.53
2023-05-19T02:49:38.952Z,12.53
2023-05-19T02:51:00.855Z,12.55
2023-05-19T02:52:21.397Z,12.49
2023-05-19T02:53:44.172Z,12.50
2023-05-19T02:55:06.153Z,12.50
2023-05-19T02:56:28.315Z,12.52
2023-05-19T02:57:52.633Z,12.53
2023-05-19T02:59:14.026Z,12.52
2023-05-19T03:00:36.085Z,12.53
2023-05-19T03:02:02.132Z,12.53
2023-05-19T03:03:26.233Z,12.53
2023-05-19T03:04:47.471Z,12.54
2023-05-19T03:06:10.004Z,12.55
2023-05-19T03:07:31.335Z,12.54
2023-05-19T03:08:56.114Z,12.56
2023-05-19T03:10:18.623Z,12.57
2023-05-19T03:12:06.733Z,12.56
2023-05-19T03:13:28.883Z,12.57
2023-05-19T03:14:51.479Z,12.59
2023-05-19T03:16:15.577Z,12.59
2023-05-19T03:17:36.744Z,12.59
2023-05-19T03:19:00.841Z,12.61
2023-05-19T03:20:23.419Z,12.64
2023-05-19T03:21:51.451Z,12.65
2023-05-19T03:23:13.617Z,12.66
2023-05-19T03:24:35.286Z,12.66
2023-05-19T03:25:57.965Z,12.69
2023-05-19T03:27:19.360Z,12.70
2023-05-19T03:28:50.928Z,12.72
2023-05-19T03:30:13.547Z,12.74
2023-05-19T03:31:52.221Z,12.75
2023-05-19T03:33:20.412Z,12.79
2023-05-19T03:34:42.960Z,12.80
2023-05-19T03:36:08.148Z,12.83
2023-05-19T03:37:33.794Z,12.84
2023-05-19T03:39:01.289Z,12.85
2023-05-19T03:40:27.377Z,12.86
2023-05-19T03:41:59.301Z,12.83
2023-05-19T03:43:20.642Z,12.87
2023-05-19T03:44:48.835Z,12.89
2023-05-19T03:46:11.405Z,12.91
2023-05-19T03:47:50.650Z,12.92
2023-05-19T03:49:31.896Z,12.92
2023-05-19T03:51:35.010Z,12.92
2023-05-19T03:53:17.693Z,12.91
2023-05-19T03:54:39.854Z,12.93
2023-05-19T03:56:01.954Z,12.87
2023-05-19T03:57:24.161Z,12.89
2023-05-19T03:58:47.137Z,12.90
2023-05-19T04:00:12.424Z,12.90
2023-05-19T04:01:33.586Z,12.91
2023-05-19T04:02:55.898Z,12.92
2023-05-19T04:04:18.397Z,12.93
2023-05-19T04:05:40.301Z,12.93
2023-05-19T04:07:03.663Z,12.98
2023-05-19T04:08:26.238Z,13.01
2023-05-19T04:09:59.518Z,13.02
2023-05-19T04:11:26.961Z,13.03
2023-05-19T04:12:48.521Z,13.11
2023-05-19T04:14:11.708Z,13.10
2023-05-19T04:15:34.257Z,13.16
2023-05-19T04:16:56.572Z,13.22
2023-05-19T04:18:17.777Z,13.28
2023-05-19T04:19:40.390Z,13.32
2023-05-19T04:21:01.913Z,13.40
2023-05-19T04:22:25.375Z,13.48
2023-05-19T04:23:47.467Z,13.56
2023-05-19T04:25:10.332Z,13.65
2023-05-19T04:26:34.652Z,13.73
2023-05-19T04:27:58.029Z,13.82
2023-05-19T04:29:20.707Z,13.90
2023-05-19T04:30:42.659Z,13.96
2023-05-19T04:32:06.914Z,14.00
2023-05-19T04:33:29.978Z,14.10
2023-05-19T04:34:51.906Z,14.17
2023-05-19T04:36:21.564Z,14.24
2023-05-19T04:37:46.692Z,14.29
2023-05-19T04:39:12.287Z,14.34
2023-05-19T04:40:37.287Z,14.35
2023-05-19T04:41:58.604Z,14.40
2023-05-19T04:43:22.407Z,14.42
2023-05-19T04:44:50.128Z,14.45
2023-05-19T04:46:13.912Z,14.45
2023-05-19T04:47:38.420Z,14.51
2023-05-19T04:49:06.969Z,14.53
2023-05-19T04:50:31.318Z,14.56
2023-05-19T04:51:55.501Z,14.58
2023-05-19T04:53:23.097Z,14.62
2023-05-19T04:54:44.428Z,14.62
2023-05-19T04:56:10.054Z,14.69
2023-05-19T04:57:31.963Z,14.73
2023-05-19T04:58:54.166Z,14.75
2023-05-19T05:00:17.823Z,14.80
2023-05-19T05:02:00.314Z,14.83
2023-05-19T05:03:25.385Z,14.89
2023-05-19T05:04:49.388Z,14.92
2023-05-19T05:06:10.639Z,14.97
2023-05-19T05:07:33.669Z,14.99
2023-05-19T05:08:58.192Z,14.99
2023-05-19T05:10:20.888Z,14.99
2023-05-19T05:11:44.461Z,15.00
2023-05-19T05:13:07.025Z,14.98
2023-05-19T05:14:29.719Z,14.97
2023-05-19T05:15:52.459Z,14.97
2023-05-19T05:17:16.253Z,14.95
2023-05-19T05:18:38.806Z,14.93
2023-05-19T05:20:01.844Z,14.89
2023-05-19T05:21:25.006Z,14.85
2023-05-19T05:22:46.599Z,14.82
2023-05-19T05:24:12.560Z,14.78
2023-05-19T05:25:37.672Z,14.76
2023-05-19T05:27:00.283Z,14.74
2023-05-19T05:28:25.025Z,14.71
2023-05-19T05:29:48.525Z,14.68
2023-05-19T05:31:12.450Z,14.67
2023-05-19T05:32:36.273Z,14.65
2023-05-19T05:34:08.172Z,14.63
2023-05-19T05:35:31.037Z,14.63
2023-05-19T05:36:53.832Z,14.65
2023-05-19T05:38:16.605Z,14.67
2023-05-19T05:39:40.527Z,14.69
2023-05-19T05:41:03.381Z,14.64
2023-05-19T05:42:29.744Z,14.63
2023-05-19T05:43:51.401Z,14.61
2023-05-19T05:45:14.100Z,14.61
2023-05-19T05:46:39.156Z,14.62
2023-05-19T05:48:02.188Z,14.65
2023-05-19T05:49:26.687Z,14.69
2023-05-19T05:50:51.260Z,14.73
2023-05-19T05:52:21.924Z,14.83
2023-05-19T05:53:52.869Z,14.94
2023-05-19T05:55:19.088Z,15.06
2023-05-19T05:56:43.273Z,15.15
2023-05-19T05:58:06.487Z,15.26
2023-05-19T05:59:29.799Z,15.35
2023-05-19T06:00:51.987Z,15.45
2023-05-19T06:02:13.661Z,15.48
2023-05-19T06:03:38.203Z,15.63
2023-05-19T06:05:02.739Z,15.73
2023-05-19T06:06:23.938Z,15.83
2023-05-19T06:07:47.667Z,15.89
2023-05-19T06:09:22.110Z,15.93
2023-05-19T06:10:48.717Z,16.01
2023-05-19T06:12:12.408Z,15.99
2023-05-19T06:13:44.340Z,15.97
2023-05-19T06:15:17.330Z,15.91
2023-05-19T06:16:51.504Z,15.92
2023-05-19T06:18:13.973Z,15.91
2023-05-19T06:19:36.156Z,15.90
2023-05-19T06:20:58.302Z,15.90
2023-05-19T06:22:19.427Z,15.93
2023-05-19T06:23:41.967Z,15.94
2023-05-19T06:25:05.873Z,15.99
2023-05-19T06:26:30.978Z,16.02
2023-05-19T06:27:54.800Z,16.01
2023-05-19T06:29:20.551Z,16.00
2023-05-19T06:30:44.365Z,15.98
2023-05-19T06:32:16.888Z,15.98
2023-05-19T06:33:39.149Z,15.93
2023-05-19T06:35:01.633Z,15.96
2023-05-19T06:36:23.884Z,15.96
2023-05-19T06:37:48.414Z,15.94
2023-05-19T06:39:11.053Z,15.89
2023-05-19T06:40:37.129Z,15.88
2023-05-19T06:42:00.878Z,15.82
2023-05-19T06:43:44.165Z,15.66
2023-05-19T06:45:21.938Z,15.67
2023-05-19T06:46:48.101Z,15.67
2023-05-19T06:48:10.836Z,15.68
2023-05-19T06:49:33.600Z,15.63
2023-05-19T06:50:57.467Z,15.60
2023-05-19T06:52:20.202Z,15.61
2023-05-19T06:53:42.618Z,15.59
2023-05-19T06:55:04.632Z,15.56
2023-05-19T06:56:28.010Z,15.52
2023-05-19T06:57:53.046Z,15.48
2023-05-19T06:59:16.375Z,15.51
2023-05-19T07:00:39.897Z,15.54
2023-05-19T07:02:04.923Z,15.55
2023-05-19T07:03:28.571Z,15.54
2023-05-19T07:04:52.840Z,15.57
2023-05-19T07:06:17.760Z,15.65
2023-05-19T07:07:40.057Z,15.69
2023-05-19T07:09:09.836Z,15.70
2023-05-19T07:10:33.865Z,15.75
2023-05-19T07:11:56.766Z,15.80
2023-05-19T07:13:20.695Z,15.85
2023-05-19T07:14:43.523Z,15.87
2023-05-19T07:16:07.150Z,15.90
2023-05-19T07:17:32.256Z,15.90
2023-05-19T07:18:54.533Z,15.88
2023-05-19T07:20:16.816Z,15.84
2023-05-19T07:21:39.184Z,15.85
2023-05-19T07:23:02.822Z,15.82
2023-05-19T07:24:26.173Z,15.80
2023-05-19T07:25:48.631Z,15.83
2023-05-19T07:27:11.333Z,15.86
2023-05-19T07:28:35.822Z,15.89
2023-05-19T07:29:57.723Z,15.93
2023-05-19T07:31:22.778Z,15.94
2023-05-19T07:32:44.942Z,15.97
2023-05-19T07:34:06.985Z,15.99
2023-05-19T07:35:28.687Z,15.93
2023-05-19T07:36:51.640Z,15.96
2023-05-19T07:38:15.514Z,15.96
2023-05-19T07:39:37.862Z,15.94
2023-05-19T07:41:00.513Z,15.89
2023-05-19T07:42:25.712Z,15.81
2023-05-19T07:44:13.502Z,15.79
2023-05-19T07:45:36.013Z,15.78
2023-05-19T07:46:58.220Z,15.75
2023-05-19T07:48:24.792Z,15.70
2023-05-19T07:49:49.075Z,15.69
2023-05-19T07:51:14.719Z,15.65
2023-05-19T07:52:37.316Z,15.64
2023-05-19T07:54:08.521Z,15.63
2023-05-19T07:55:30.539Z,15.59
2023-05-19T07:56:55.672Z,15.52
2023-05-19T07:58:18.063Z,15.49
2023-05-19T07:59:50.787Z,15.45
2023-05-19T08:01:13.023Z,15.40
2023-05-19T08:02:39.764Z,15.48
2023-05-19T08:04:01.823Z,15.48
2023-05-19T08:05:30.677Z,15.51
2023-05-19T08:06:53.292Z,15.52
2023-05-19T08:08:16.997Z,15.58
2023-05-19T08:09:43.420Z,15.60
2023-05-19T08:11:06.807Z,15.63
2023-05-19T08:12:34.312Z,15.75
2023-05-19T08:13:59.151Z,15.83
2023-05-19T08:15:28.581Z,15.87
2023-05-19T08:16:51.921Z,15.90
2023-05-19T08:18:24.832Z,16.11
2023-05-19T08:19:47.147Z,16.24
2023-05-19T08:21:32.036Z,16.34
2023-05-19T08:22:54.954Z,16.45
2023-05-19T08:24:17.338Z,16.57
2023-05-19T08:25:39.570Z,16.72
2023-05-19T08:27:01.988Z,16.78
2023-05-19T08:28:23.929Z,16.84
2023-05-19T08:29:46.137Z,17.06
2023-05-19T08:31:28.519Z,17.17
2023-05-19T08:32:51.510Z,17.50
2023-05-19T08:34:13.752Z,17.62
2023-05-19T08:35:35.916Z,17.78
2023-05-19T08:36:59.969Z,17.92
2023-05-19T08:38:22.404Z,18.13
2023-05-19T08:39:46.075Z,18.29
2023-05-19T08:41:32.484Z,18.39
2023-05-19T08:42:58.615Z,18.35
2023-05-19T08:44:20.910Z,18.28
2023-05-19T08:45:46.647Z,18.24
2023-05-19T08:47:14.120Z,18.28
2023-05-19T08:48:43.552Z,18.34
2023-05-19T08:50:13.232Z,18.55
2023-05-19T08:52:03.417Z,18.65
2023-05-19T08:53:33.198Z,18.80
2023-05-19T08:55:10.023Z,19.01
2023-05-19T08:56:36.472Z,19.06
2023-05-19T08:58:13.244Z,19.03
2023-05-19T09:01:41.941Z,19.12
2023-05-19T09:03:18.269Z,19.16
2023-05-19T09:04:48.153Z,19.30
2023-05-19T09:06:12.726Z,19.40
2023-05-19T09:07:37.978Z,19.61
2023-05-19T09:09:04.204Z,19.71
2023-05-19T09:10:29.335Z,19.90
2023-05-19T09:11:51.463Z,20.04
2023-05-19T09:13:13.875Z,20.14
2023-05-19T09:14:41.691Z,20.35
2023-05-19T09:16:05.544Z,20.49
2023-05-19T09:17:27.882Z,20.67
2023-05-19T09:19:13.269Z,20.90
2023-05-19T09:20:40.464Z,21.20
2023-05-19T09:22:04.904Z,21.47
2023-05-19T09:23:37.498Z,21.85
2023-05-19T09:25:01.903Z,22.10
2023-05-19T09:26:27.789Z,22.39
2023-05-19T09:28:06.066Z,22.55
2023-05-19T09:29:28.792Z,22.62
2023-05-19T09:31:10.061Z,22.68
2023-05-19T09:32:32.405Z,22.65
2023-05-19T09:34:00.619Z,22.56
2023-05-19T09:35:25.302Z,22.58
2023-05-19T09:37:00.618Z,22.62
2023-05-19T09:38:27.078Z,22.64
2023-05-19T09:39:52.313Z,22.65
2023-05-19T09:41:18.949Z,22.75
2023-05-19T09:42:49.809Z,22.79
2023-05-19T09:44:23.416Z,22.76
2023-05-19T09:45:47.479Z,22.63
2023-05-19T09:47:11.427Z,22.69
2023-05-19T09:48:34.733Z,22.71
2023-05-19T09:50:01.800Z,22.66
2023-05-19T09:51:23.959Z,22.55
2023-05-19T09:52:50.480Z,22.57
2023-05-19T09:54:47.048Z,22.55
2023-05-19T09:56:10.434Z,22.67
2023-05-19T09:57:39.538Z,22.87
2023-05-19T09:59:02.929Z,23.06
2023-05-19T10:03:29.404Z,23.83
2023-05-19T10:04:53.547Z,24.20
2023-05-19T10:06:17.828Z,24.43
2023-05-19T10:07:44.740Z,24.62
2023-05-19T10:09:07.879Z,24.64
2023-05-19T10:10:49.937Z,24.58
2023-05-19T10:12:16.222Z,24.50
2023-05-19T10:13:40.066Z,24.31
2023-05-19T10:15:02.904Z,24.19
2023-05-19T10:16:29.591Z,24.12
2023-05-19T10:17:52.831Z,24.00
2023-05-19T10:19:19.386Z,23.89
2023-05-19T10:21:35.232Z,23.68
2023-05-19T10:22:59.346Z,23.27
2023-05-19T10:24:22.162Z,23.00
2023-05-19T10:26:05.267Z,22.90
2023-05-19T10:27:29.700Z,22.62
2023-05-19T10:29:28.832Z,22.35
2023-05-19T10:31:12.177Z,21.97
2023-05-19T10:32:35.849Z,21.76
2023-05-19T10:40:22.670Z,21.03
2023-05-19T10:42:19.229Z,20.80
2023-05-19T10:44:29.238Z,20.71
2023-05-19T10:46:20.373Z,20.53
2023-05-19T10:48:32.442Z,20.50
2023-05-19T10:50:19.515Z,20.48
2023-05-19T10:51:46.871Z,20.52
2023-05-19T10:53:19.474Z,20.57
2023-05-19T10:54:44.030Z,20.58
2023-05-19T10:56:53.689Z,20.60
2023-05-19T10:58:17.605Z,20.43
2023-05-19T10:59:40.162Z,20.27
2023-05-19T11:01:02.987Z,20.17
2023-05-19T11:03:36.676Z,19.77
2023-05-19T11:05:30.313Z,19.44
2023-05-19T11:07:06.349Z,19.25
2023-05-19T11:08:34.656Z,19.10
2023-05-19T11:10:08.357Z,18.88
2023-05-19T11:11:51.301Z,18.70
2023-05-19T11:13:42.499Z,18.38
2023-05-19T11:15:05.631Z,18.27
2023-05-19T11:16:53.901Z,18.04
2023-05-19T11:23:49.886Z,17.64
2023-05-19T11:31:58.739Z,17.07
2023-05-19T11:39:56.160Z,16.66
2023-05-19T11:44:15.248Z,16.68
2023-05-19T11:45:40.998Z,16.73
2023-05-19T11:48:07.852Z,16.81
2023-05-19T11:56:42.039Z,16.93
2023-05-19T11:58:06.213Z,16.98
2023-05-19T12:00:40.230Z,17.02
2023-05-19T12:02:15.918Z,17.02
2023-05-19T12:03:38.514Z,17.06
2023-05-19T12:05:09.748Z,17.01
2023-05-19T12:06:39.704Z,17.10
2023-05-19T12:08:13.687Z,17.11
2023-05-19T12:09:38.859Z,17.24
2023-05-19T12:11:04.999Z,17.27
2023-05-19T12:12:35.589Z,17.32
2023-05-19T12:14:00.376Z,17.35
2023-05-19T12:15:23.280Z,17.46
2023-05-19T12:16:45.895Z,17.51
2023-05-19T12:34:03.558Z,17.87
2023-05-19T12:35:44.936Z,17.80
2023-05-19T12:39:52.029Z,17.71
2023-05-19T12:41:16.937Z,17.71
2023-05-19T12:43:29.019Z,17.60
2023-05-19T12:48:40.739Z,17.38
2023-05-19T13:06:50.898Z,17.22
2023-05-19T13:08:14.924Z,17.21
2023-05-19T13:10:15.822Z,17.18
2023-05-19T13:11:38.892Z,17.17
2023-05-19T13:13:03.308Z,17.13
2023-05-19T13:15:15.398Z,17.16
2023-05-19T13:17:39.132Z,17.01
2023-05-19T13:19:01.746Z,17.08
2023-05-19T13:20:25.578Z,17.12
2023-05-19T13:21:52.246Z,17.16
2023-05-19T13:23:15.889Z,17.23
2023-05-19T13:24:44.061Z,17.34
2023-05-19T13:26:09.467Z,17.44
2023-05-19T13:27:31.145Z,17.48
2023-05-19T13:28:53.809Z,17.60
2023-05-19T13:30:52.920Z,17.62
2023-05-19T13:32:19.160Z,17.73
2023-05-19T13:33:56.753Z,17.68
2023-05-19T13:38:02.122Z,17.61
2023-05-19T13:39:47.204Z,17.59
2023-05-19T13:42:45.726Z,17.55
2023-05-19T13:44:50.495Z,17.33
2023-05-19T13:48:46.574Z,17.29
2023-05-19T13:55:33.781Z,17.16
2023-05-19T14:00:44.549Z,17.37
2023-05-19T14:02:40.176Z,17.50
2023-05-19T14:07:49.806Z,17.81
2023-05-19T14:10:25.281Z,18.15
2023-05-19T14:13:42.730Z,18.74
2023-05-19T14:15:09.845Z,18.91
2023-05-19T14:16:35.482Z,19.19
2023-05-19T14:18:21.753Z,19.48
2023-05-19T14:19:44.085Z,19.73
2023-05-19T14:21:42.380Z,19.94
2023-05-19T14:23:04.522Z,20.19
2023-05-19T14:24:26.818Z,20.30
2023-05-19T14:25:49.025Z,20.35
2023-05-19T14:27:11.185Z,20.32
2023-05-19T14:28:32.387Z,20.25
2023-05-19T14:29:58.268Z,20.15
2023-05-19T14:31:29.316Z,20.06
2023-05-19T14:32:58.120Z,19.94
2023-05-19T14:34:21.237Z,19.90
2023-05-19T14:35:43.651Z,19.85
2023-05-19T14:37:06.252Z,19.83
2023-05-19T14:38:29.413Z,19.76
2023-05-19T14:39:52.109Z,19.70
2023-05-19T14:41:13.801Z,19.56
2023-05-19T14:42:35.860Z,19.54
2023-05-19T14:43:59.260Z,19.54
2023-05-19T14:45:25.815Z,19.54
2023-05-19T14:46:47.154Z,19.60
2023-05-19T14:48:10.953Z,19.65
2023-05-19T14:49:33.288Z,19.70
2023-05-19T14:50:55.929Z,19.80
2023-05-19T14:52:18.060Z,19.88
2023-05-19T14:53:40.387Z,19.95
2023-05-19T14:55:02.951Z,20.03
2023-05-19T14:56:34.048Z,20.09
2023-05-19T14:58:28.478Z,20.16
2023-05-19T14:59:51.922Z,20.22
2023-05-19T15:01:15.441Z,20.31
2023-05-19T15:02:37.429Z,20.35
2023-05-19T15:04:06.058Z,20.39
2023-05-19T15:05:35.830Z,20.41
2023-05-19T15:07:10.629Z,20.43
2023-05-19T15:08:33.405Z,20.41
2023-05-19T15:09:55.651Z,20.43
2023-05-19T15:11:17.822Z,20.38
2023-05-19T15:12:40.172Z,20.42
2023-05-19T15:14:01.251Z,20.42
2023-05-19T15:15:23.548Z,20.40
2023-05-19T15:16:47.395Z,20.36
2023-05-19T15:18:09.685Z,20.32
2023-05-19T15:19:31.826Z,20.30
2023-05-19T15:20:53.890Z,20.26
2023-05-19T15:22:25.650Z,20.19
2023-05-19T15:23:50.348Z,20.14
2023-05-19T15:25:15.380Z,20.11
2023-05-19T15:26:41.017Z,20.07
2023-05-19T15:28:04.023Z,20.03
2023-05-19T15:29:26.028Z,19.98
2023-05-19T15:30:48.424Z,19.95
2023-05-19T15:32:14.679Z,19.83
2023-05-19T15:33:37.509Z,19.82
2023-05-19T15:34:59.621Z,19.75
2023-05-19T15:36:27.539Z,19.64
2023-05-19T15:37:51.815Z,19.60
2023-05-19T15:39:37.550Z,19.51
2023-05-19T15:41:00.072Z,19.39
2023-05-19T15:42:22.286Z,19.43
2023-05-19T15:43:46.532Z,19.32
2023-05-19T15:45:10.625Z,19.31
2023-05-19T15:46:41.535Z,19.30
2023-05-19T15:48:09.081Z,19.27
2023-05-19T15:49:32.289Z,19.23
2023-05-19T15:50:55.025Z,19.20
2023-05-19T15:52:17.473Z,19.15
2023-05-19T15:53:42.913Z,19.10
2023-05-19T15:55:04.427Z,19.07
2023-05-19T15:56:26.832Z,19.07
2023-05-19T15:57:49.039Z,19.05
2023-05-19T15:59:10.179Z,19.03
2023-05-19T16:00:45.549Z,18.97
2023-05-19T16:02:08.288Z,18.98
2023-05-19T16:03:31.928Z,18.94
2023-05-19T16:04:54.169Z,18.90
2023-05-19T16:06:16.523Z,18.88
2023-05-19T16:07:42.325Z,18.84
2023-05-19T16:09:04.457Z,18.82
2023-05-19T16:10:26.522Z,18.78
2023-05-19T16:11:49.806Z,18.72
2023-05-19T16:13:12.045Z,18.66
2023-05-19T16:14:36.644Z,18.56
2023-05-19T16:15:59.089Z,18.54
2023-05-19T16:17:20.084Z,18.50
2023-05-19T16:18:50.216Z,18.44
2023-05-19T16:20:13.016Z,18.42
2023-05-19T16:21:33.939Z,18.38
2023-05-19T16:22:58.579Z,18.36
2023-05-19T16:24:20.766Z,18.35
2023-05-19T16:25:45.607Z,18.33
2023-05-19T16:27:07.288Z,18.28
2023-05-19T16:28:31.360Z,18.32
2023-05-19T16:29:54.876Z,18.32
2023-05-19T16:31:17.172Z,18.30
2023-05-19T16:32:39.716Z,18.27
2023-05-19T16:34:19.940Z,18.23
2023-05-19T16:35:42.056Z,18.18
2023-05-19T16:37:13.840Z,18.13
2023-05-19T16:38:35.960Z,18.07
2023-05-19T16:39:57.296Z,18.01
2023-05-19T16:41:19.430Z,17.97
2023-05-19T16:42:48.693Z,17.94
2023-05-19T16:44:14.761Z,17.89
2023-05-19T16:45:36.150Z,17.85
2023-05-19T16:47:01.331Z,17.81
2023-05-19T16:48:28.026Z,17.73
2023-05-19T16:50:00.472Z,17.69
2023-05-19T16:51:27.754Z,17.64
2023-05-19T16:52:50.052Z,17.60
2023-05-19T16:54:12.430Z,17.57
2023-05-19T16:55:33.953Z,17.46
2023-05-19T16:56:56.128Z,17.42
2023-05-19T16:58:17.472Z,17.37
2023-05-19T16:59:49.865Z,17.31
2023-05-19T17:01:17.494Z,17.25
2023-05-19T17:02:41.215Z,17.21
2023-05-19T17:04:21.659Z,17.10
2023-05-19T17:05:45.113Z,17.10
2023-05-19T17:07:07.225Z,17.06
2023-05-19T17:08:29.558Z,17.01
2023-05-19T17:09:53.937Z,16.98
2023-05-19T17:11:17.414Z,16.93
2023-05-19T17:12:39.779Z,16.88
2023-05-19T17:14:02.148Z,16.84
2023-05-19T17:15:24.249Z,16.78
2023-05-19T17:16:46.805Z,16.76
2023-05-19T17:18:08.953Z,16.70
2023-05-19T17:19:31.647Z,16.67
2023-05-19T17:20:55.609Z,16.65
2023-05-19T17:22:17.005Z,16.60
2023-05-19T17:23:39.405Z,16.60
2023-05-19T17:25:13.894Z,16.55
2023-05-19T17:26:45.333Z,16.49
2023-05-19T17:28:18.384Z,16.51
2023-05-19T17:29:42.665Z,16.41
2023-05-19T17:31:13.093Z,16.34
2023-05-19T17:32:39.533Z,16.35
2023-05-19T17:34:15.470Z,16.29
2023-05-19T17:35:39.092Z,16.31
2023-05-19T17:37:06.232Z,16.23
2023-05-19T17:38:28.742Z,16.19
2023-05-19T17:39:51.149Z,16.21
2023-05-19T17:41:22.053Z,16.19
2023-05-19T17:42:44.538Z,16.13
2023-05-19T17:44:07.585Z,16.12
2023-05-19T17:45:57.262Z,16.09
2023-05-19T17:47:23.803Z,16.05
2023-05-19T17:48:48.837Z,16.05
2023-05-19T17:50:12.245Z,16.00
2023-05-19T17:51:34.796Z,15.92
2023-05-19T17:52:58.964Z,15.96
2023-05-19T17:54:26.335Z,15.92
2023-05-19T17:55:52.668Z,15.90
2023-05-19T17:57:18.655Z,15.91
2023-05-19T17:58:41.592Z,15.90
2023-05-19T18:00:05.008Z,15.89
2023-05-19T18:01:30.980Z,15.83
2023-05-19T18:03:06.213Z,15.81
2023-05-19T18:04:35.424Z,15.77
2023-05-19T18:06:02.197Z,15.81
2023-05-19T18:07:25.473Z,15.71
2023-05-19T18:08:51.633Z,15.78
2023-05-19T18:10:16.944Z,15.73
2023-05-19T18:11:39.008Z,15.74
2023-05-19T18:13:00.507Z,15.66
2023-05-19T18:14:23.003Z,15.68
2023-05-19T18:15:45.335Z,15.63
2023-05-19T18:17:12.218Z,15.61
2023-05-19T18:18:37.410Z,15.62
2023-05-19T18:19:59.468Z,15.63
2023-05-19T18:21:21.630Z,15.58
2023-05-19T18:22:44.118Z,15.60
2023-05-19T18:24:08.471Z,15.59
2023-05-19T18:25:31.516Z,15.60
2023-05-19T18:26:56.305Z,15.60
2023-05-19T18:28:18.705Z,15.56
2023-05-19T18:29:40.855Z,15.54
2023-05-19T18:31:08.719Z,15.54
2023-05-19T18:32:31.096Z,15.52
2023-05-19T18:33:53.319Z,15.56
2023-05-19T18:35:16.064Z,15.54
2023-05-19T18:36:38.132Z,15.49
2023-05-19T18:38:00.194Z,15.49
2023-05-19T18:39:29.263Z,15.50
2023-05-19T18:40:56.823Z,15.44
2023-05-19T18:42:19.451Z,15.48
2023-05-19T18:43:41.551Z,15.46
2023-05-19T18:45:03.849Z,15.47
2023-05-19T18:46:26.566Z,15.43
2023-05-19T18:47:49.036Z,15.45
2023-05-19T18:49:13.771Z,15.43
2023-05-19T18:50:41.350Z,15.41
2023-05-19T18:52:04.979Z,15.42
2023-05-19T18:53:27.249Z,15.38
2023-05-19T18:54:51.011Z,15.42
2023-05-19T18:56:15.372Z,15.42
2023-05-19T18:57:38.042Z,15.39
2023-05-19T18:59:00.103Z,15.39
2023-05-19T19:00:22.503Z,15.38
2023-05-19T19:01:46.953Z,15.39
2023-05-19T19:03:10.464Z,15.38
2023-05-19T19:04:35.461Z,15.36
2023-05-19T19:05:58.830Z,15.37
2023-05-19T19:07:21.225Z,15.33
2023-05-19T19:08:43.704Z,15.38
2023-05-19T19:10:18.853Z,15.35
2023-05-19T19:11:41.889Z,15.36
2023-05-19T19:13:02.874Z,15.37
2023-05-19T19:14:25.190Z,15.35
2023-05-19T19:15:46.994Z,15.34
2023-05-19T19:17:09.762Z,15.36
2023-05-19T19:18:34.786Z,15.35
2023-05-19T19:19:57.397Z,15.29
2023-05-19T19:21:23.057Z,15.35
2023-05-19T19:22:47.255Z,15.34
2023-05-19T19:24:09.779Z,15.31
2023-05-19T19:25:37.711Z,15.32
2023-05-19T19:26:59.070Z,15.26
2023-05-19T19:28:22.277Z,15.32
2023-05-19T19:29:47.476Z,15.33
2023-05-19T19:31:15.545Z,15.32
2023-05-19T19:32:38.016Z,15.29
2023-05-19T19:34:25.642Z,15.28
2023-05-19T19:35:54.384Z,15.29
2023-05-19T19:37:22.632Z,15.27
2023-05-19T19:38:45.062Z,15.29
2023-05-19T19:40:08.700Z,15.30
2023-05-19T19:41:33.560Z,15.30
2023-05-19T19:43:07.130Z,15.29
2023-05-19T19:44:29.659Z,15.28
2023-05-19T19:46:00.771Z,15.29
2023-05-19T19:47:23.465Z,15.28
2023-05-19T19:48:48.417Z,15.28
2023-05-19T19:50:18.370Z,15.28
2023-05-19T19:51:40.624Z,15.29
2023-05-19T19:53:03.105Z,15.29
2023-05-19T19:54:25.531Z,15.28
2023-05-19T19:55:47.192Z,15.24
2023-05-19T19:57:11.632Z,15.25
2023-05-19T19:58:33.996Z,15.26
2023-05-19T20:00:04.964Z,15.21
2023-05-19T20:01:28.051Z,15.23
2023-05-19T20:03:02.683Z,15.20
2023-05-19T20:04:28.462Z,15.18
2023-05-19T20:05:51.535Z,15.21
2023-05-19T20:07:14.357Z,15.19
2023-05-19T20:08:37.658Z,15.22
2023-05-19T20:10:00.274Z,15.22
2023-05-19T20:11:24.988Z,15.21
2023-05-19T20:12:54.510Z,15.21
2023-05-19T20:14:26.699Z,15.20
2023-05-19T20:15:50.160Z,15.20
2023-05-19T20:17:12.582Z,15.20
2023-05-19T20:18:34.992Z,15.20